GLD1620 SBNT-SBFZ
Flight info
| Callsign | GLD1620 |
|---|---|
| Flight time | 0h 47m |
| Altitude | 32000 |
| Route | SINU1A SINUD TENUB TENU1A |
| Aircraft | B738/M-SDE2E3FGHIRWXY/LB1 |
Departure
| Time | 2026-04-22 22:01 |
|---|---|
| Airport | Natal Air Force Base (SBNT) |
Arrival
| Time | 2026-04-22 22:48 |
|---|---|
| Airport | Pinto Martins International Airport (SBFZ) |
| Time | Latitude | Longitude | Altitude | Speed | Heading |
|---|---|---|---|---|---|
| 2026-04-22 21:50 | -5.89986 | -35.24933 | 169 ft | 0 kts | 28° |
| 2026-04-22 21:56 | -5.89995 | -35.24938 | 169 ft | 4 kts | 30° |
| 2026-04-22 21:56 | -5.90019 | -35.24952 | 169 ft | 4 kts | 30° |
| 2026-04-22 21:56 | -5.90042 | -35.24962 | 169 ft | 3 kts | 2° |
| 2026-04-22 21:57 | -5.90046 | -35.24962 | 169 ft | 1 kts | 0° |
| 2026-04-22 21:59 | -5.90045 | -35.24962 | 169 ft | 0 kts | 360° |
| 2026-04-22 21:59 | -5.90029 | -35.24973 | 169 ft | 1 kts | 301° |
| 2026-04-22 21:59 | -5.90035 | -35.24984 | 169 ft | 3 kts | 226° |
| 2026-04-22 21:59 | -5.90083 | -35.25016 | 169 ft | 10 kts | 220° |
| 2026-04-22 22:00 | -5.90132 | -35.25066 | 170 ft | 10 kts | 229° |
| 2026-04-22 22:00 | -5.90174 | -35.25118 | 171 ft | 9 kts | 226° |
| 2026-04-22 22:00 | -5.90210 | -35.25128 | 170 ft | 4 kts | 165° |
| 2026-04-22 22:00 | -5.90265 | -35.25086 | 170 ft | 35 kts | 143° |
| 2026-04-22 22:01 | -5.90721 | -35.24721 | 160 ft | 129 kts | 141° |
| 2026-04-22 22:01 | -5.91585 | -35.24001 | 359 ft | 191 kts | 139° |
| 2026-04-22 22:01 | -5.92672 | -35.23093 | 1065 ft | 213 kts | 139° |
| 2026-04-22 22:01 | -5.93768 | -35.22182 | 1576 ft | 197 kts | 140° |
| 2026-04-22 22:02 | -5.94815 | -35.21345 | 1904 ft | 198 kts | 141° |
| 2026-04-22 22:02 | -5.95997 | -35.20451 | 2101 ft | 228 kts | 148° |
| 2026-04-22 22:02 | -5.97612 | -35.20072 | 2534 ft | 252 kts | 183° |
| 2026-04-22 22:02 | -5.99283 | -35.20632 | 3351 ft | 259 kts | 211° |
| 2026-04-22 22:03 | -6.00544 | -35.21958 | 4118 ft | 271 kts | 239° |
| 2026-04-22 22:03 | -6.01010 | -35.23789 | 5002 ft | 275 kts | 269° |
| 2026-04-22 22:03 | -6.00539 | -35.25665 | 5744 ft | 285 kts | 298° |
| 2026-04-22 22:03 | -5.99158 | -35.27092 | 6499 ft | 291 kts | 330° |
| 2026-04-22 22:04 | -5.97215 | -35.27598 | 7244 ft | 292 kts | 4° |
| 2026-04-22 22:04 | -5.95307 | -35.27072 | 8037 ft | 289 kts | 26° |
| 2026-04-22 22:04 | -5.93466 | -35.26230 | 8788 ft | 294 kts | 23° |
| 2026-04-22 22:04 | -5.91445 | -35.25871 | 9510 ft | 302 kts | 356° |
| 2026-04-22 22:05 | -5.89458 | -35.26555 | 10206 ft | 309 kts | 326° |
| 2026-04-22 22:05 | -5.87850 | -35.28077 | 10456 ft | 331 kts | 312° |
| 2026-04-22 22:05 | -5.86307 | -35.29888 | 10638 ft | 351 kts | 309° |
| 2026-04-22 22:05 | -5.84736 | -35.31814 | 11097 ft | 360 kts | 309° |
| 2026-04-22 22:06 | -5.83136 | -35.33779 | 11763 ft | 364 kts | 309° |
| 2026-04-22 22:06 | -5.81524 | -35.35740 | 12451 ft | 366 kts | 310° |
| 2026-04-22 22:06 | -5.79889 | -35.37708 | 13118 ft | 369 kts | 310° |
| 2026-04-22 22:06 | -5.78248 | -35.39666 | 13755 ft | 373 kts | 311° |
| 2026-04-22 22:07 | -5.76565 | -35.41662 | 14348 ft | 376 kts | 311° |
| 2026-04-22 22:07 | -5.74863 | -35.43674 | 14968 ft | 379 kts | 311° |
| 2026-04-22 22:07 | -5.73150 | -35.45694 | 15594 ft | 382 kts | 311° |
| 2026-04-22 22:07 | -5.71422 | -35.47730 | 16216 ft | 385 kts | 311° |
| 2026-04-22 22:08 | -5.69655 | -35.49811 | 16820 ft | 388 kts | 311° |
| 2026-04-22 22:08 | -5.67892 | -35.51887 | 17392 ft | 392 kts | 311° |
| 2026-04-22 22:08 | -5.66137 | -35.53952 | 17960 ft | 396 kts | 311° |
| 2026-04-22 22:08 | -5.64342 | -35.56065 | 18491 ft | 399 kts | 311° |
| 2026-04-22 22:09 | -5.62541 | -35.58185 | 19002 ft | 401 kts | 311° |
| 2026-04-22 22:09 | -5.60720 | -35.60328 | 19516 ft | 404 kts | 311° |
| 2026-04-22 22:09 | -5.58893 | -35.62479 | 20027 ft | 406 kts | 311° |
| 2026-04-22 22:09 | -5.57054 | -35.64642 | 20523 ft | 408 kts | 311° |
| 2026-04-22 22:10 | -5.55203 | -35.66820 | 21005 ft | 411 kts | 311° |
| 2026-04-22 22:10 | -5.53342 | -35.69010 | 21500 ft | 414 kts | 311° |
| 2026-04-22 22:10 | -5.51496 | -35.71182 | 21969 ft | 416 kts | 311° |
| 2026-04-22 22:10 | -5.49638 | -35.73367 | 22431 ft | 418 kts | 311° |
| 2026-04-22 22:11 | -5.47746 | -35.75592 | 22911 ft | 420 kts | 311° |
| 2026-04-22 22:11 | -5.45846 | -35.77827 | 23371 ft | 422 kts | 311° |
| 2026-04-22 22:11 | -5.43933 | -35.80077 | 23762 ft | 425 kts | 311° |
| 2026-04-22 22:11 | -5.42015 | -35.82332 | 24118 ft | 427 kts | 311° |
| 2026-04-22 22:12 | -5.40081 | -35.84606 | 24458 ft | 429 kts | 311° |
| 2026-04-22 22:12 | -5.38130 | -35.86898 | 24801 ft | 432 kts | 311° |
| 2026-04-22 22:12 | -5.36176 | -35.89196 | 25136 ft | 434 kts | 311° |
| 2026-04-22 22:12 | -5.34213 | -35.91504 | 25473 ft | 437 kts | 311° |
| 2026-04-22 22:13 | -5.32261 | -35.93798 | 25810 ft | 439 kts | 311° |
| 2026-04-22 22:13 | -5.30275 | -35.96131 | 26126 ft | 441 kts | 311° |
| 2026-04-22 22:13 | -5.28289 | -35.98494 | 26434 ft | 444 kts | 308° |
| 2026-04-22 22:13 | -5.26603 | -36.01098 | 26736 ft | 447 kts | 300° |
| 2026-04-22 22:14 | -5.25111 | -36.03836 | 27048 ft | 449 kts | 298° |
| 2026-04-22 22:14 | -5.23636 | -36.06611 | 27374 ft | 451 kts | 299° |
| 2026-04-22 22:14 | -5.22122 | -36.09370 | 27690 ft | 453 kts | 300° |
| 2026-04-22 22:14 | -5.20571 | -36.12118 | 28039 ft | 453 kts | 300° |
| 2026-04-22 22:15 | -5.19071 | -36.14854 | 28423 ft | 453 kts | 296° |
| 2026-04-22 22:15 | -5.17788 | -36.17734 | 28919 ft | 451 kts | 292° |
| 2026-04-22 22:15 | -5.16648 | -36.20659 | 29351 ft | 450 kts | 291° |
| 2026-04-22 22:15 | -5.15562 | -36.23595 | 29755 ft | 450 kts | 290° |
| 2026-04-22 22:16 | -5.14476 | -36.26546 | 30127 ft | 450 kts | 290° |
| 2026-04-22 22:16 | -5.13378 | -36.29481 | 30498 ft | 449 kts | 291° |
| 2026-04-22 22:16 | -5.12262 | -36.32411 | 30875 ft | 449 kts | 291° |
| 2026-04-22 22:16 | -5.11134 | -36.35328 | 31228 ft | 448 kts | 291° |
| 2026-04-22 22:17 | -5.09997 | -36.38239 | 31583 ft | 448 kts | 291° |
| 2026-04-22 22:17 | -5.08857 | -36.41142 | 31926 ft | 446 kts | 291° |
| 2026-04-22 22:17 | -5.07713 | -36.44048 | 31919 ft | 449 kts | 291° |
| 2026-04-22 22:18 | -5.05434 | -36.49832 | 31933 ft | 448 kts | 291° |
| 2026-04-22 22:18 | -5.03153 | -36.55622 | 31938 ft | 445 kts | 291° |
| 2026-04-22 22:19 | -5.00882 | -36.61391 | 31937 ft | 444 kts | 291° |
| 2026-04-22 22:19 | -4.98612 | -36.67156 | 31941 ft | 445 kts | 291° |
| 2026-04-22 22:20 | -4.96338 | -36.72931 | 31939 ft | 446 kts | 291° |
| 2026-04-22 22:20 | -4.94072 | -36.78680 | 31938 ft | 446 kts | 291° |
| 2026-04-22 22:21 | -4.91790 | -36.84471 | 31938 ft | 447 kts | 291° |
| 2026-04-22 22:21 | -4.89500 | -36.90280 | 31938 ft | 448 kts | 291° |
| 2026-04-22 22:22 | -4.87208 | -36.96094 | 31934 ft | 448 kts | 291° |
| 2026-04-22 22:22 | -4.84931 | -37.01867 | 31933 ft | 449 kts | 291° |
| 2026-04-22 22:23 | -4.82633 | -37.07692 | 31932 ft | 449 kts | 291° |
| 2026-04-22 22:23 | -4.80345 | -37.13489 | 31925 ft | 443 kts | 291° |
| 2026-04-22 22:24 | -4.78097 | -37.19183 | 31927 ft | 436 kts | 291° |
| 2026-04-22 22:24 | -4.75876 | -37.24809 | 31736 ft | 438 kts | 291° |
| 2026-04-22 22:24 | -4.74761 | -37.27631 | 31389 ft | 433 kts | 291° |
| 2026-04-22 22:25 | -4.73656 | -37.30429 | 30981 ft | 430 kts | 291° |
| 2026-04-22 22:25 | -4.72560 | -37.33202 | 30587 ft | 427 kts | 291° |
| 2026-04-22 22:25 | -4.71472 | -37.35957 | 30185 ft | 424 kts | 291° |
| 2026-04-22 22:25 | -4.70388 | -37.38699 | 29712 ft | 423 kts | 291° |
| 2026-04-22 22:26 | -4.69306 | -37.41437 | 29261 ft | 420 kts | 291° |
| 2026-04-22 22:26 | -4.68237 | -37.44143 | 28815 ft | 417 kts | 291° |
| 2026-04-22 22:26 | -4.67189 | -37.46795 | 28385 ft | 413 kts | 292° |
| 2026-04-22 22:26 | -4.66132 | -37.49469 | 27956 ft | 410 kts | 292° |
| 2026-04-22 22:27 | -4.65086 | -37.52112 | 27536 ft | 407 kts | 292° |
| 2026-04-22 22:27 | -4.64046 | -37.54744 | 27115 ft | 405 kts | 292° |
| 2026-04-22 22:27 | -4.63011 | -37.57360 | 26701 ft | 402 kts | 292° |
| 2026-04-22 22:27 | -4.61983 | -37.59959 | 26292 ft | 400 kts | 292° |
| 2026-04-22 22:28 | -4.60959 | -37.62547 | 25872 ft | 398 kts | 292° |
| 2026-04-22 22:28 | -4.59943 | -37.65115 | 25456 ft | 397 kts | 292° |
| 2026-04-22 22:28 | -4.58927 | -37.67684 | 25036 ft | 395 kts | 292° |
| 2026-04-22 22:28 | -4.57914 | -37.70242 | 24617 ft | 394 kts | 292° |
| 2026-04-22 22:29 | -4.56906 | -37.72790 | 24201 ft | 393 kts | 292° |
| 2026-04-22 22:29 | -4.55900 | -37.75333 | 23785 ft | 392 kts | 292° |
| 2026-04-22 22:29 | -4.54893 | -37.77875 | 23334 ft | 391 kts | 292° |
| 2026-04-22 22:29 | -4.53893 | -37.80402 | 22882 ft | 389 kts | 292° |
| 2026-04-22 22:30 | -4.52899 | -37.82913 | 22455 ft | 387 kts | 292° |
| 2026-04-22 22:30 | -4.51909 | -37.85413 | 22042 ft | 384 kts | 292° |
| 2026-04-22 22:30 | -4.50932 | -37.87882 | 21639 ft | 381 kts | 292° |
| 2026-04-22 22:30 | -4.49966 | -37.90321 | 21238 ft | 379 kts | 292° |
| 2026-04-22 22:31 | -4.48997 | -37.92766 | 20846 ft | 377 kts | 292° |
| 2026-04-22 22:31 | -4.48003 | -37.95182 | 20453 ft | 374 kts | 298° |
| 2026-04-22 22:31 | -4.46471 | -37.97261 | 20039 ft | 370 kts | 318° |
| 2026-04-22 22:31 | -4.44401 | -37.98763 | 19638 ft | 366 kts | 329° |
| 2026-04-22 22:32 | -4.42224 | -38.00081 | 19213 ft | 366 kts | 331° |
| 2026-04-22 22:32 | -4.40033 | -38.01377 | 18823 ft | 364 kts | 331° |
| 2026-04-22 22:32 | -4.37855 | -38.02674 | 18426 ft | 364 kts | 330° |
| 2026-04-22 22:32 | -4.35698 | -38.03975 | 17999 ft | 363 kts | 330° |
| 2026-04-22 22:33 | -4.33550 | -38.05284 | 17583 ft | 361 kts | 330° |
| 2026-04-22 22:33 | -4.31412 | -38.06593 | 17189 ft | 358 kts | 330° |
| 2026-04-22 22:33 | -4.29331 | -38.07868 | 16818 ft | 355 kts | 330° |
| 2026-04-22 22:33 | -4.27224 | -38.09177 | 16448 ft | 353 kts | 329° |
| 2026-04-22 22:34 | -4.25183 | -38.10518 | 16082 ft | 351 kts | 328° |
| 2026-04-22 22:34 | -4.23161 | -38.11876 | 15697 ft | 349 kts | 327° |
| 2026-04-22 22:34 | -4.21147 | -38.13234 | 15324 ft | 347 kts | 328° |
| 2026-04-22 22:34 | -4.19148 | -38.14578 | 14940 ft | 346 kts | 328° |
| 2026-04-22 22:35 | -4.17155 | -38.15913 | 14555 ft | 345 kts | 328° |
| 2026-04-22 22:35 | -4.15160 | -38.17247 | 14185 ft | 344 kts | 328° |
| 2026-04-22 22:35 | -4.13173 | -38.18572 | 13807 ft | 343 kts | 328° |
| 2026-04-22 22:35 | -4.11192 | -38.19893 | 13393 ft | 342 kts | 328° |
| 2026-04-22 22:36 | -4.09249 | -38.21188 | 13013 ft | 339 kts | 328° |
| 2026-04-22 22:36 | -4.07290 | -38.22493 | 12632 ft | 337 kts | 328° |
| 2026-04-22 22:36 | -4.05341 | -38.23791 | 12251 ft | 335 kts | 328° |
| 2026-04-22 22:36 | -4.03410 | -38.25077 | 11891 ft | 333 kts | 328° |
| 2026-04-22 22:37 | -4.01482 | -38.26362 | 11528 ft | 331 kts | 327° |
| 2026-04-22 22:37 | -3.99570 | -38.27635 | 11165 ft | 330 kts | 327° |
| 2026-04-22 22:37 | -3.97658 | -38.28908 | 10796 ft | 328 kts | 327° |
| 2026-04-22 22:37 | -3.95761 | -38.30171 | 10435 ft | 327 kts | 327° |
| 2026-04-22 22:38 | -3.93964 | -38.31511 | 10245 ft | 320 kts | 314° |
| 2026-04-22 22:38 | -3.92752 | -38.33332 | 10104 ft | 311 kts | 291° |
| 2026-04-22 22:38 | -3.92122 | -38.35367 | 9945 ft | 303 kts | 284° |
| 2026-04-22 22:38 | -3.91600 | -38.37379 | 9629 ft | 303 kts | 283° |
| 2026-04-22 22:39 | -3.91084 | -38.39416 | 9311 ft | 301 kts | 283° |
| 2026-04-22 22:39 | -3.90572 | -38.41421 | 8988 ft | 293 kts | 284° |
| 2026-04-22 22:39 | -3.90068 | -38.43365 | 8689 ft | 284 kts | 284° |
| 2026-04-22 22:39 | -3.89572 | -38.45256 | 8407 ft | 276 kts | 284° |
| 2026-04-22 22:40 | -3.89089 | -38.47089 | 8123 ft | 269 kts | 284° |
| 2026-04-22 22:40 | -3.88612 | -38.48891 | 7857 ft | 267 kts | 284° |
| 2026-04-22 22:40 | -3.88135 | -38.50690 | 7609 ft | 269 kts | 284° |
| 2026-04-22 22:40 | -3.87647 | -38.52530 | 7353 ft | 278 kts | 284° |
| 2026-04-22 22:41 | -3.87147 | -38.54410 | 7069 ft | 279 kts | 284° |
| 2026-04-22 22:41 | -3.86661 | -38.56276 | 6756 ft | 276 kts | 284° |
| 2026-04-22 22:41 | -3.86183 | -38.58144 | 6472 ft | 277 kts | 284° |
| 2026-04-22 22:41 | -3.85709 | -38.59995 | 6177 ft | 279 kts | 284° |
| 2026-04-22 22:42 | -3.85226 | -38.61883 | 5858 ft | 279 kts | 284° |
| 2026-04-22 22:42 | -3.84747 | -38.63756 | 5548 ft | 277 kts | 284° |
| 2026-04-22 22:42 | -3.84271 | -38.65609 | 5252 ft | 274 kts | 284° |
| 2026-04-22 22:42 | -3.83796 | -38.67458 | 4970 ft | 273 kts | 283° |
| 2026-04-22 22:43 | -3.83323 | -38.69287 | 4674 ft | 271 kts | 285° |
| 2026-04-22 22:43 | -3.82429 | -38.70920 | 4352 ft | 269 kts | 315° |
| 2026-04-22 22:43 | -3.80913 | -38.71881 | 4251 ft | 249 kts | 344° |
| 2026-04-22 22:43 | -3.79315 | -38.72099 | 4210 ft | 223 kts | 5° |
| 2026-04-22 22:44 | -3.77882 | -38.71837 | 4203 ft | 198 kts | 17° |
| 2026-04-22 22:44 | -3.76601 | -38.71490 | 4202 ft | 189 kts | 18° |
| 2026-04-22 22:44 | -3.75319 | -38.71127 | 3956 ft | 198 kts | 21° |
| 2026-04-22 22:44 | -3.74225 | -38.70322 | 3437 ft | 199 kts | 63° |
| 2026-04-22 22:45 | -3.73986 | -38.69009 | 3133 ft | 189 kts | 94° |
| 2026-04-22 22:45 | -3.74042 | -38.67740 | 3017 ft | 175 kts | 97° |
| 2026-04-22 22:45 | -3.74201 | -38.66572 | 3004 ft | 169 kts | 100° |
| 2026-04-22 22:45 | -3.74413 | -38.65446 | 3023 ft | 166 kts | 103° |
| 2026-04-22 22:46 | -3.74692 | -38.64317 | 2995 ft | 166 kts | 104° |
| 2026-04-22 22:46 | -3.74987 | -38.63195 | 2995 ft | 167 kts | 105° |
| 2026-04-22 22:46 | -3.75287 | -38.62066 | 2994 ft | 167 kts | 104° |
| 2026-04-22 22:46 | -3.75569 | -38.60942 | 2661 ft | 167 kts | 103° |
| 2026-04-22 22:47 | -3.75837 | -38.59812 | 2232 ft | 168 kts | 103° |
| 2026-04-22 22:47 | -3.76127 | -38.58674 | 1693 ft | 169 kts | 105° |
| 2026-04-22 22:47 | -3.76470 | -38.57552 | 1205 ft | 167 kts | 107° |
| 2026-04-22 22:47 | -3.76759 | -38.56436 | 804 ft | 164 kts | 102° |
| 2026-04-22 22:48 | -3.77060 | -38.55346 | 446 ft | 159 kts | 107° |
| 2026-04-22 22:48 | -3.77353 | -38.54303 | 134 ft | 150 kts | 105° |
| 2026-04-22 22:48 | -3.77591 | -38.53412 | 89 ft | 104 kts | 104° |
| 2026-04-22 22:48 | -3.77720 | -38.52924 | 91 ft | 44 kts | 105° |
| 2026-04-22 22:49 | -3.77784 | -38.52687 | 91 ft | 30 kts | 107° |
| 2026-04-22 22:49 | -3.77854 | -38.52625 | 91 ft | 1 kts | 213° |
| 2026-04-22 22:49 | -3.77871 | -38.52654 | 90 ft | 7 kts | 243° |
| 2026-04-22 22:49 | -3.77895 | -38.52700 | 91 ft | 7 kts | 242° |
| 2026-04-22 22:50 | -3.77910 | -38.52748 | 91 ft | 8 kts | 260° |
| 2026-04-22 22:50 | -3.77905 | -38.52810 | 91 ft | 13 kts | 282° |
| 2026-04-22 22:50 | -3.77878 | -38.52901 | 93 ft | 13 kts | 284° |
| 2026-04-22 22:50 | -3.77857 | -38.52989 | 90 ft | 13 kts | 283° |
| 2026-04-22 22:51 | -3.77834 | -38.53073 | 92 ft | 12 kts | 287° |
| 2026-04-22 22:51 | -3.77811 | -38.53156 | 93 ft | 12 kts | 283° |
| 2026-04-22 22:51 | -3.77787 | -38.53251 | 90 ft | 17 kts | 284° |
| 2026-04-22 22:51 | -3.77754 | -38.53374 | 91 ft | 24 kts | 285° |
| 2026-04-22 22:52 | -3.77694 | -38.53594 | 91 ft | 40 kts | 285° |
| 2026-04-22 22:52 | -3.77662 | -38.53804 | 91 ft | 12 kts | 225° |
| 2026-04-22 22:52 | -3.77743 | -38.53898 | 92 ft | 16 kts | 240° |
| 2026-04-22 22:52 | -3.77799 | -38.53953 | 90 ft | 0 kts | 217° |
| 2026-04-22 22:53 | -3.77806 | -38.53958 | 90 ft | 2 kts | 218° |
| 2026-04-22 22:53 | -3.77807 | -38.53959 | 90 ft | 0 kts | 218° |